Terminal Aerodrome Forecast
Issued by NWS Sterling, VA

Current Version | Previous Version | Graphics & Text | Print | Product List | Glossary On
Versions: 1 2 3 4 5 6 7 8 9 10 11 12 13 14 15 16 17 18 19 20 21 22 23
000
FTUS41 KLWX 112054 AAA
TAFDCA
TAF AMD
KDCA 112054Z 1121/1224 17004KT P6SM FEW150 BKN250
     FM120900 17008KT P6SM SCT090 OVC200
     FM121400 22009KT P6SM BKN070
     FM121700 27012KT P6SM BKN060
     FM122000 30018G33KT P6SM BKN060=

USA.gov is the U.S. government's official web portal to all federal, state and local government web resources and services.